sensor_id;sensor_type;location;lat;lon;timestamp;P1;durP1;ratioP1;P2;durP2;ratioP2
71475;SDS011;59286;59.274;17.974;2023-09-07T00:01:31;6.15;;;2.00;;
71475;SDS011;59286;59.274;17.974;2023-09-07T00:03:58;1.85;;;1.30;;
71475;SDS011;59286;59.274;17.974;2023-09-07T00:06:23;3.35;;;1.25;;
71475;SDS011;59286;59.274;17.974;2023-09-07T00:08:50;2.17;;;1.10;;
71475;SDS011;59286;59.274;17.974;2023-09-07T00:11:15;3.97;;;1.52;;
71475;SDS011;59286;59.274;17.974;2023-09-07T00:13:40;5.40;;;1.40;;
71475;SDS011;59286;59.274;17.974;2023-09-07T00:16:06;3.08;;;1.63;;
71475;SDS011;59286;59.274;17.974;2023-09-07T00:18:32;3.40;;;1.30;;
71475;SDS011;59286;59.274;17.974;2023-09-07T00:20:58;4.47;;;1.55;;
71475;SDS011;59286;59.274;17.974;2023-09-07T00:23:24;4.85;;;1.95;;
71475;SDS011;59286;59.274;17.974;2023-09-07T00:25:50;2.95;;;1.65;;
71475;SDS011;59286;59.274;17.974;2023-09-07T00:28:15;1.92;;;1.55;;
71475;SDS011;59286;59.274;17.974;2023-09-07T00:30:40;5.03;;;1.60;;
71475;SDS011;59286;59.274;17.974;2023-09-07T00:33:06;1.60;;;1.20;;
71475;SDS011;59286;59.274;17.974;2023-09-07T00:35:32;3.47;;;1.50;;
71475;SDS011;59286;59.274;17.974;2023-09-07T00:37:57;4.45;;;1.40;;
71475;SDS011;59286;59.274;17.974;2023-09-07T00:40:23;2.17;;;1.23;;
71475;SDS011;59286;59.274;17.974;2023-09-07T00:42:48;4.10;;;1.70;;
71475;SDS011;59286;59.274;17.974;2023-09-07T00:45:14;3.90;;;1.63;;
71475;SDS011;59286;59.274;17.974;2023-09-07T00:47:40;3.13;;;1.65;;
71475;SDS011;59286;59.274;17.974;2023-09-07T00:50:06;4.82;;;1.75;;
71475;SDS011;59286;59.274;17.974;2023-09-07T00:52:32;2.70;;;1.10;;
71475;SDS011;59286;59.274;17.974;2023-09-07T00:55:00;2.35;;;1.23;;
71475;SDS011;59286;59.274;17.974;2023-09-07T00:57:27;2.22;;;1.20;;
71475;SDS011;59286;59.274;17.974;2023-09-07T00:59:52;3.17;;;1.13;;
71475;SDS011;59286;59.274;17.974;2023-09-07T01:02:18;8.40;;;1.98;;
71475;SDS011;59286;59.274;17.974;2023-09-07T01:04:44;4.35;;;2.00;;
71475;SDS011;59286;59.274;17.974;2023-09-07T01:07:17;4.53;;;1.27;;
71475;SDS011;59286;59.274;17.974;2023-09-07T01:09:46;2.25;;;1.20;;
71475;SDS011;59286;59.274;17.974;2023-09-07T01:12:16;4.60;;;1.67;;
71475;SDS011;59286;59.274;17.974;2023-09-07T01:14:42;4.75;;;1.80;;
71475;SDS011;59286;59.274;17.974;2023-09-07T01:17:08;3.53;;;1.58;;
71475;SDS011;59286;59.274;17.974;2023-09-07T01:19:34;4.95;;;1.60;;
71475;SDS011;59286;59.274;17.974;2023-09-07T01:22:00;2.28;;;1.40;;
71475;SDS011;59286;59.274;17.974;2023-09-07T01:24:25;2.00;;;1.40;;
71475;SDS011;59286;59.274;17.974;2023-09-07T01:26:53;2.67;;;1.17;;
71475;SDS011;59286;59.274;17.974;2023-09-07T01:29:19;6.97;;;1.50;;
71475;SDS011;59286;59.274;17.974;2023-09-07T01:31:44;4.20;;;1.50;;
71475;SDS011;59286;59.274;17.974;2023-09-07T01:34:10;8.07;;;1.77;;
71475;SDS011;59286;59.274;17.974;2023-09-07T01:36:35;4.00;;;1.40;;
71475;SDS011;59286;59.274;17.974;2023-09-07T01:39:01;3.35;;;1.48;;
71475;SDS011;59286;59.274;17.974;2023-09-07T01:41:27;3.45;;;1.38;;
71475;SDS011;59286;59.274;17.974;2023-09-07T01:43:54;4.47;;;1.13;;
71475;SDS011;59286;59.274;17.974;2023-09-07T01:46:19;2.17;;;1.05;;
71475;SDS011;59286;59.274;17.974;2023-09-07T01:48:44;2.47;;;1.23;;
71475;SDS011;59286;59.274;17.974;2023-09-07T01:51:10;4.20;;;1.85;;
71475;SDS011;59286;59.274;17.974;2023-09-07T01:53:35;3.95;;;1.80;;
71475;SDS011;59286;59.274;17.974;2023-09-07T01:56:00;3.08;;;1.20;;
71475;SDS011;59286;59.274;17.974;2023-09-07T01:58:26;3.85;;;1.63;;
71475;SDS011;59286;59.274;17.974;2023-09-07T02:00:57;2.85;;;0.95;;
71475;SDS011;59286;59.274;17.974;2023-09-07T02:03:26;4.85;;;1.20;;
71475;SDS011;59286;59.274;17.974;2023-09-07T02:05:54;3.00;;;1.00;;
71475;SDS011;59286;59.274;17.974;2023-09-07T02:08:20;3.72;;;1.50;;
71475;SDS011;59286;59.274;17.974;2023-09-07T02:10:46;7.10;;;1.50;;
71475;SDS011;59286;59.274;17.974;2023-09-07T02:13:11;2.85;;;0.90;;
71475;SDS011;59286;59.274;17.974;2023-09-07T02:15:39;2.80;;;1.40;;
71475;SDS011;59286;59.274;17.974;2023-09-07T02:18:05;3.08;;;1.40;;
71475;SDS011;59286;59.274;17.974;2023-09-07T02:20:34;2.08;;;1.02;;
71475;SDS011;59286;59.274;17.974;2023-09-07T02:22:59;3.78;;;0.98;;
71475;SDS011;59286;59.274;17.974;2023-09-07T02:25:25;1.52;;;1.08;;
71475;SDS011;59286;59.274;17.974;2023-09-07T02:27:52;2.50;;;1.15;;
71475;SDS011;59286;59.274;17.974;2023-09-07T02:30:18;3.30;;;1.10;;
71475;SDS011;59286;59.274;17.974;2023-09-07T02:32:43;2.80;;;1.33;;
71475;SDS011;59286;59.274;17.974;2023-09-07T02:35:09;3.58;;;1.00;;
71475;SDS011;59286;59.274;17.974;2023-09-07T02:37:38;2.38;;;1.23;;
71475;SDS011;59286;59.274;17.974;2023-09-07T02:40:03;5.10;;;1.35;;
71475;SDS011;59286;59.274;17.974;2023-09-07T02:42:35;9.20;;;1.85;;
71475;SDS011;59286;59.274;17.974;2023-09-07T02:45:00;4.25;;;1.20;;
71475;SDS011;59286;59.274;17.974;2023-09-07T02:47:26;3.05;;;1.10;;
71475;SDS011;59286;59.274;17.974;2023-09-07T02:49:51;1.95;;;0.77;;
71475;SDS011;59286;59.274;17.974;2023-09-07T02:52:17;3.08;;;1.23;;
71475;SDS011;59286;59.274;17.974;2023-09-07T02:54:42;3.97;;;1.10;;
71475;SDS011;59286;59.274;17.974;2023-09-07T02:57:08;2.28;;;1.20;;
71475;SDS011;59286;59.274;17.974;2023-09-07T02:59:33;2.15;;;1.20;;
71475;SDS011;59286;59.274;17.974;2023-09-07T03:01:58;2.97;;;1.27;;
71475;SDS011;59286;59.274;17.974;2023-09-07T03:04:23;2.83;;;1.15;;
71475;SDS011;59286;59.274;17.974;2023-09-07T03:06:49;1.25;;;0.90;;
71475;SDS011;59286;59.274;17.974;2023-09-07T03:09:14;1.88;;;0.90;;
71475;SDS011;59286;59.274;17.974;2023-09-07T03:11:39;3.92;;;1.10;;
71475;SDS011;59286;59.274;17.974;2023-09-07T03:14:05;3.90;;;0.75;;
71475;SDS011;59286;59.274;17.974;2023-09-07T03:16:30;3.95;;;1.30;;
71475;SDS011;59286;59.274;17.974;2023-09-07T03:18:56;1.38;;;0.82;;
71475;SDS011;59286;59.274;17.974;2023-09-07T03:21:21;4.55;;;1.35;;
71475;SDS011;59286;59.274;17.974;2023-09-07T03:23:50;4.72;;;1.23;;
71475;SDS011;59286;59.274;17.974;2023-09-07T03:26:17;5.78;;;1.40;;
71475;SDS011;59286;59.274;17.974;2023-09-07T03:28:42;4.50;;;1.40;;
71475;SDS011;59286;59.274;17.974;2023-09-07T03:31:07;2.83;;;1.45;;
71475;SDS011;59286;59.274;17.974;2023-09-07T03:33:33;2.95;;;0.90;;
71475;SDS011;59286;59.274;17.974;2023-09-07T03:35:58;2.95;;;1.63;;
71475;SDS011;59286;59.274;17.974;2023-09-07T03:38:24;1.50;;;0.98;;
71475;SDS011;59286;59.274;17.974;2023-09-07T03:40:49;2.47;;;1.08;;
71475;SDS011;59286;59.274;17.974;2023-09-07T03:43:15;9.50;;;1.92;;
71475;SDS011;59286;59.274;17.974;2023-09-07T03:45:40;2.90;;;1.10;;
71475;SDS011;59286;59.274;17.974;2023-09-07T03:48:06;3.78;;;1.40;;
71475;SDS011;59286;59.274;17.974;2023-09-07T03:50:31;2.17;;;1.02;;
71475;SDS011;59286;59.274;17.974;2023-09-07T03:52:56;3.17;;;1.10;;
71475;SDS011;59286;59.274;17.974;2023-09-07T03:55:22;6.47;;;2.33;;
71475;SDS011;59286;59.274;17.974;2023-09-07T03:57:47;5.40;;;1.67;;
71475;SDS011;59286;59.274;17.974;2023-09-07T04:00:13;2.92;;;1.60;;
71475;SDS011;59286;59.274;17.974;2023-09-07T04:02:39;5.32;;;1.52;;
71475;SDS011;59286;59.274;17.974;2023-09-07T04:05:04;6.82;;;2.50;;
71475;SDS011;59286;59.274;17.974;2023-09-07T04:07:30;4.32;;;1.45;;
71475;SDS011;59286;59.274;17.974;2023-09-07T04:09:56;3.47;;;1.42;;
71475;SDS011;59286;59.274;17.974;2023-09-07T04:12:22;3.42;;;2.08;;
71475;SDS011;59286;59.274;17.974;2023-09-07T04:14:47;5.47;;;2.40;;
71475;SDS011;59286;59.274;17.974;2023-09-07T04:17:12;7.80;;;2.67;;
71475;SDS011;59286;59.274;17.974;2023-09-07T04:19:38;2.13;;;1.73;;
71475;SDS011;59286;59.274;17.974;2023-09-07T04:22:03;2.80;;;1.90;;
71475;SDS011;59286;59.274;17.974;2023-09-07T04:24:29;6.05;;;1.70;;
71475;SDS011;59286;59.274;17.974;2023-09-07T04:26:57;3.47;;;1.85;;
71475;SDS011;59286;59.274;17.974;2023-09-07T04:29:26;4.05;;;2.10;;
71475;SDS011;59286;59.274;17.974;2023-09-07T04:31:52;4.93;;;2.75;;
71475;SDS011;59286;59.274;17.974;2023-09-07T04:34:18;4.30;;;2.63;;
71475;SDS011;59286;59.274;17.974;2023-09-07T04:36:43;2.58;;;1.98;;
71475;SDS011;59286;59.274;17.974;2023-09-07T04:39:08;7.45;;;3.42;;
71475;SDS011;59286;59.274;17.974;2023-09-07T04:41:34;4.15;;;1.95;;
71475;SDS011;59286;59.274;17.974;2023-09-07T04:43:59;5.50;;;2.95;;
71475;SDS011;59286;59.274;17.974;2023-09-07T04:46:24;6.60;;;3.50;;
71475;SDS011;59286;59.274;17.974;2023-09-07T04:48:50;5.18;;;2.80;;
71475;SDS011;59286;59.274;17.974;2023-09-07T04:51:15;5.95;;;2.88;;
71475;SDS011;59286;59.274;17.974;2023-09-07T04:53:41;6.68;;;3.17;;
71475;SDS011;59286;59.274;17.974;2023-09-07T04:56:07;8.00;;;3.22;;
71475;SDS011;59286;59.274;17.974;2023-09-07T04:58:33;6.57;;;3.40;;
71475;SDS011;59286;59.274;17.974;2023-09-07T05:01:06;19.85;;;4.82;;
71475;SDS011;59286;59.274;17.974;2023-09-07T05:03:33;22.92;;;5.13;;
71475;SDS011;59286;59.274;17.974;2023-09-07T05:05:59;5.80;;;3.40;;
71475;SDS011;59286;59.274;17.974;2023-09-07T05:08:25;8.65;;;3.38;;
71475;SDS011;59286;59.274;17.974;2023-09-07T05:11:00;20.80;;;4.57;;
71475;SDS011;59286;59.274;17.974;2023-09-07T05:13:27;27.77;;;6.03;;
71475;SDS011;59286;59.274;17.974;2023-09-07T05:15:54;14.43;;;4.90;;
71475;SDS011;59286;59.274;17.974;2023-09-07T05:18:20;14.93;;;4.22;;
71475;SDS011;59286;59.274;17.974;2023-09-07T05:20:46;23.67;;;5.40;;
71475;SDS011;59286;59.274;17.974;2023-09-07T05:23:16;5.57;;;3.65;;
71475;SDS011;59286;59.274;17.974;2023-09-07T05:25:48;5.95;;;3.72;;
71475;SDS011;59286;59.274;17.974;2023-09-07T05:28:15;9.27;;;4.45;;
71475;SDS011;59286;59.274;17.974;2023-09-07T05:30:41;6.95;;;4.22;;
71475;SDS011;59286;59.274;17.974;2023-09-07T05:33:09;10.35;;;4.32;;
71475;SDS011;59286;59.274;17.974;2023-09-07T05:35:34;12.63;;;4.00;;
71475;SDS011;59286;59.274;17.974;2023-09-07T05:38:00;6.70;;;3.60;;
71475;SDS011;59286;59.274;17.974;2023-09-07T05:40:27;6.63;;;4.03;;
71475;SDS011;59286;59.274;17.974;2023-09-07T05:42:52;3.78;;;2.33;;
71475;SDS011;59286;59.274;17.974;2023-09-07T05:45:17;5.85;;;3.42;;
71475;SDS011;59286;59.274;17.974;2023-09-07T05:47:43;6.75;;;3.83;;
71475;SDS011;59286;59.274;17.974;2023-09-07T05:50:08;4.65;;;2.88;;
71475;SDS011;59286;59.274;17.974;2023-09-07T05:52:34;7.13;;;2.80;;
71475;SDS011;59286;59.274;17.974;2023-09-07T05:54:59;4.78;;;2.70;;
71475;SDS011;59286;59.274;17.974;2023-09-07T05:57:24;4.00;;;2.55;;
71475;SDS011;59286;59.274;17.974;2023-09-07T05:59:50;4.30;;;2.28;;
71475;SDS011;59286;59.274;17.974;2023-09-07T06:02:15;4.00;;;1.85;;
71475;SDS011;59286;59.274;17.974;2023-09-07T06:04:40;5.68;;;1.98;;
71475;SDS011;59286;59.274;17.974;2023-09-07T06:07:05;2.92;;;1.80;;
71475;SDS011;59286;59.274;17.974;2023-09-07T06:09:31;4.57;;;1.85;;
71475;SDS011;59286;59.274;17.974;2023-09-07T06:11:56;2.63;;;1.45;;
71475;SDS011;59286;59.274;17.974;2023-09-07T06:14:21;6.10;;;1.38;;
71475;SDS011;59286;59.274;17.974;2023-09-07T06:16:47;4.43;;;1.17;;
71475;SDS011;59286;59.274;17.974;2023-09-07T06:19:12;3.42;;;1.15;;
71475;SDS011;59286;59.274;17.974;2023-09-07T06:21:37;3.72;;;1.08;;
71475;SDS011;59286;59.274;17.974;2023-09-07T06:24:03;1.95;;;1.00;;
71475;SDS011;59286;59.274;17.974;2023-09-07T06:26:31;3.10;;;1.00;;
71475;SDS011;59286;59.274;17.974;2023-09-07T06:28:56;4.60;;;0.88;;
71475;SDS011;59286;59.274;17.974;2023-09-07T06:31:22;2.55;;;1.00;;
71475;SDS011;59286;59.274;17.974;2023-09-07T06:33:47;1.75;;;0.80;;
71475;SDS011;59286;59.274;17.974;2023-09-07T06:36:13;3.63;;;0.77;;
71475;SDS011;59286;59.274;17.974;2023-09-07T06:38:38;2.47;;;1.00;;
71475;SDS011;59286;59.274;17.974;2023-09-07T06:41:03;2.03;;;0.82;;
71475;SDS011;59286;59.274;17.974;2023-09-07T06:43:30;1.90;;;0.80;;
71475;SDS011;59286;59.274;17.974;2023-09-07T06:46:01;1.50;;;0.70;;
71475;SDS011;59286;59.274;17.974;2023-09-07T06:48:28;3.38;;;0.93;;
71475;SDS011;59286;59.274;17.974;2023-09-07T06:50:53;2.47;;;0.80;;
71475;SDS011;59286;59.274;17.974;2023-09-07T06:53:18;3.05;;;0.75;;
71475;SDS011;59286;59.274;17.974;2023-09-07T06:55:44;1.27;;;0.77;;
71475;SDS011;59286;59.274;17.974;2023-09-07T06:58:09;1.25;;;0.90;;
71475;SDS011;59286;59.274;17.974;2023-09-07T07:00:34;2.92;;;0.80;;
71475;SDS011;59286;59.274;17.974;2023-09-07T07:03:00;2.13;;;1.05;;
71475;SDS011;59286;59.274;17.974;2023-09-07T07:05:25;4.20;;;0.80;;
71475;SDS011;59286;59.274;17.974;2023-09-07T07:07:53;3.72;;;1.00;;
71475;SDS011;59286;59.274;17.974;2023-09-07T07:10:18;3.00;;;1.02;;
71475;SDS011;59286;59.274;17.974;2023-09-07T07:12:44;2.08;;;0.90;;
71475;SDS011;59286;59.274;17.974;2023-09-07T07:15:09;4.03;;;1.10;;
71475;SDS011;59286;59.274;17.974;2023-09-07T07:17:36;3.22;;;0.90;;
71475;SDS011;59286;59.274;17.974;2023-09-07T07:20:01;1.88;;;0.90;;
71475;SDS011;59286;59.274;17.974;2023-09-07T07:22:27;3.78;;;0.90;;
71475;SDS011;59286;59.274;17.974;2023-09-07T07:24:52;2.13;;;0.73;;
71475;SDS011;59286;59.274;17.974;2023-09-07T07:27:17;3.20;;;0.80;;
71475;SDS011;59286;59.274;17.974;2023-09-07T07:29:43;2.20;;;0.90;;
71475;SDS011;59286;59.274;17.974;2023-09-07T07:32:08;1.33;;;0.63;;
71475;SDS011;59286;59.274;17.974;2023-09-07T07:34:34;4.43;;;1.10;;
71475;SDS011;59286;59.274;17.974;2023-09-07T07:36:59;2.20;;;0.82;;
71475;SDS011;59286;59.274;17.974;2023-09-07T07:39:24;2.42;;;0.88;;
71475;SDS011;59286;59.274;17.974;2023-09-07T07:41:50;2.17;;;0.90;;
71475;SDS011;59286;59.274;17.974;2023-09-07T07:44:15;2.65;;;0.90;;
71475;SDS011;59286;59.274;17.974;2023-09-07T07:46:40;2.58;;;1.00;;
71475;SDS011;59286;59.274;17.974;2023-09-07T07:49:06;3.20;;;1.00;;
71475;SDS011;59286;59.274;17.974;2023-09-07T07:51:31;2.33;;;1.00;;
71475;SDS011;59286;59.274;17.974;2023-09-07T07:53:56;1.98;;;1.10;;
71475;SDS011;59286;59.274;17.974;2023-09-07T07:56:22;3.08;;;1.08;;
71475;SDS011;59286;59.274;17.974;2023-09-07T07:58:48;2.13;;;0.80;;
71475;SDS011;59286;59.274;17.974;2023-09-07T08:01:15;2.30;;;1.10;;
71475;SDS011;59286;59.274;17.974;2023-09-07T08:03:41;1.75;;;1.00;;
71475;SDS011;59286;59.274;17.974;2023-09-07T08:06:07;4.72;;;1.27;;
71475;SDS011;59286;59.274;17.974;2023-09-07T08:08:32;2.05;;;0.90;;
71475;SDS011;59286;59.274;17.974;2023-09-07T08:10:57;1.50;;;1.00;;
71475;SDS011;59286;59.274;17.974;2023-09-07T08:13:25;2.53;;;1.00;;
71475;SDS011;59286;59.274;17.974;2023-09-07T08:15:50;3.20;;;1.10;;
71475;SDS011;59286;59.274;17.974;2023-09-07T08:18:16;1.83;;;1.05;;
71475;SDS011;59286;59.274;17.974;2023-09-07T08:20:41;2.67;;;1.00;;
71475;SDS011;59286;59.274;17.974;2023-09-07T08:23:06;1.55;;;0.80;;
71475;SDS011;59286;59.274;17.974;2023-09-07T08:25:34;2.08;;;1.00;;
71475;SDS011;59286;59.274;17.974;2023-09-07T08:27:59;4.40;;;1.17;;
71475;SDS011;59286;59.274;17.974;2023-09-07T08:30:25;1.90;;;0.77;;
71475;SDS011;59286;59.274;17.974;2023-09-07T08:32:50;3.42;;;0.80;;
71475;SDS011;59286;59.274;17.974;2023-09-07T08:35:16;2.92;;;1.20;;
71475;SDS011;59286;59.274;17.974;2023-09-07T08:37:42;5.25;;;1.33;;
71475;SDS011;59286;59.274;17.974;2023-09-07T08:40:08;2.72;;;1.15;;
71475;SDS011;59286;59.274;17.974;2023-09-07T08:42:37;3.40;;;1.20;;
71475;SDS011;59286;59.274;17.974;2023-09-07T08:45:04;1.98;;;1.10;;
71475;SDS011;59286;59.274;17.974;2023-09-07T08:47:36;4.47;;;1.30;;
71475;SDS011;59286;59.274;17.974;2023-09-07T08:50:02;1.92;;;0.80;;
71475;SDS011;59286;59.274;17.974;2023-09-07T08:52:31;2.42;;;1.13;;
71475;SDS011;59286;59.274;17.974;2023-09-07T08:54:57;1.50;;;0.90;;
71475;SDS011;59286;59.274;17.974;2023-09-07T08:57:28;5.25;;;1.70;;
71475;SDS011;59286;59.274;17.974;2023-09-07T08:59:55;2.63;;;0.90;;
71475;SDS011;59286;59.274;17.974;2023-09-07T09:02:20;2.28;;;0.75;;
71475;SDS011;59286;59.274;17.974;2023-09-07T09:04:45;3.08;;;1.27;;
71475;SDS011;59286;59.274;17.974;2023-09-07T09:07:11;4.07;;;0.88;;
71475;SDS011;59286;59.274;17.974;2023-09-07T09:09:36;3.47;;;1.00;;
71475;SDS011;59286;59.274;17.974;2023-09-07T09:12:07;2.55;;;1.25;;
71475;SDS011;59286;59.274;17.974;2023-09-07T09:14:36;2.42;;;1.00;;
71475;SDS011;59286;59.274;17.974;2023-09-07T09:17:01;2.03;;;0.90;;
71475;SDS011;59286;59.274;17.974;2023-09-07T09:19:30;2.78;;;0.90;;
71475;SDS011;59286;59.274;17.974;2023-09-07T09:21:57;4.88;;;1.35;;
71475;SDS011;59286;59.274;17.974;2023-09-07T09:24:23;1.77;;;1.05;;
71475;SDS011;59286;59.274;17.974;2023-09-07T09:26:48;3.15;;;1.17;;
71475;SDS011;59286;59.274;17.974;2023-09-07T09:29:13;5.22;;;0.95;;
71475;SDS011;59286;59.274;17.974;2023-09-07T09:31:41;2.13;;;0.88;;
71475;SDS011;59286;59.274;17.974;2023-09-07T09:34:06;3.78;;;1.00;;
71475;SDS011;59286;59.274;17.974;2023-09-07T09:36:32;2.22;;;0.90;;
71475;SDS011;59286;59.274;17.974;2023-09-07T09:38:59;2.60;;;0.90;;
71475;SDS011;59286;59.274;17.974;2023-09-07T09:41:25;1.50;;;1.00;;
71475;SDS011;59286;59.274;17.974;2023-09-07T09:43:51;2.28;;;1.20;;
71475;SDS011;59286;59.274;17.974;2023-09-07T09:46:18;1.55;;;0.65;;
71475;SDS011;59286;59.274;17.974;2023-09-07T09:48:43;1.90;;;0.98;;
71475;SDS011;59286;59.274;17.974;2023-09-07T09:51:09;5.63;;;1.10;;
71475;SDS011;59286;59.274;17.974;2023-09-07T09:53:36;2.42;;;0.75;;
71475;SDS011;59286;59.274;17.974;2023-09-07T09:56:04;2.70;;;0.88;;
71475;SDS011;59286;59.274;17.974;2023-09-07T09:58:30;1.73;;;1.10;;
71475;SDS011;59286;59.274;17.974;2023-09-07T10:00:55;1.85;;;1.00;;
71475;SDS011;59286;59.274;17.974;2023-09-07T10:03:31;4.25;;;1.30;;
71475;SDS011;59286;59.274;17.974;2023-09-07T10:06:07;1.87;;;1.20;;
71475;SDS011;59286;59.274;17.974;2023-09-07T10:08:35;1.70;;;1.02;;
71475;SDS011;59286;59.274;17.974;2023-09-07T10:11:07;2.28;;;1.08;;
71475;SDS011;59286;59.274;17.974;2023-09-07T10:13:34;2.05;;;1.20;;
71475;SDS011;59286;59.274;17.974;2023-09-07T10:16:03;2.55;;;1.17;;
71475;SDS011;59286;59.274;17.974;2023-09-07T10:18:41;2.80;;;1.10;;
71475;SDS011;59286;59.274;17.974;2023-09-07T10:21:06;1.65;;;1.20;;
71475;SDS011;59286;59.274;17.974;2023-09-07T10:23:36;3.70;;;0.98;;
71475;SDS011;59286;59.274;17.974;2023-09-07T10:26:03;2.40;;;1.33;;
71475;SDS011;59286;59.274;17.974;2023-09-07T10:28:29;1.42;;;1.20;;
71475;SDS011;59286;59.274;17.974;2023-09-07T10:31:13;4.32;;;1.23;;
71475;SDS011;59286;59.274;17.974;2023-09-07T10:33:39;4.03;;;1.10;;
71475;SDS011;59286;59.274;17.974;2023-09-07T10:36:05;2.20;;;1.20;;
71475;SDS011;59286;59.274;17.974;2023-09-07T10:38:31;2.67;;;1.08;;
71475;SDS011;59286;59.274;17.974;2023-09-07T10:40:58;3.15;;;1.00;;
71475;SDS011;59286;59.274;17.974;2023-09-07T10:43:33;2.88;;;1.08;;
71475;SDS011;59286;59.274;17.974;2023-09-07T10:45:59;2.17;;;1.07;;
71475;SDS011;59286;59.274;17.974;2023-09-07T10:48:28;2.70;;;1.15;;
71475;SDS011;59286;59.274;17.974;2023-09-07T10:50:54;2.40;;;1.00;;
71475;SDS011;59286;59.274;17.974;2023-09-07T10:58:27;1.23;;;0.73;;
71475;SDS011;59286;59.274;17.974;2023-09-07T11:00:55;2.15;;;1.10;;
71475;SDS011;59286;59.274;17.974;2023-09-07T11:03:21;2.88;;;1.00;;
71475;SDS011;59286;59.274;17.974;2023-09-07T11:05:47;2.90;;;1.10;;
71475;SDS011;59286;59.274;17.974;2023-09-07T11:08:13;1.90;;;0.93;;
71475;SDS011;59286;59.274;17.974;2023-09-07T11:10:39;1.10;;;0.70;;
71475;SDS011;59286;59.274;17.974;2023-09-07T11:13:04;4.95;;;0.95;;
71475;SDS011;59286;59.274;17.974;2023-09-07T11:15:31;2.08;;;1.08;;
71475;SDS011;59286;59.274;17.974;2023-09-07T11:17:58;2.00;;;0.90;;
71475;SDS011;59286;59.274;17.974;2023-09-07T11:20:29;1.67;;;0.90;;
71475;SDS011;59286;59.274;17.974;2023-09-07T11:22:54;2.63;;;0.90;;
71475;SDS011;59286;59.274;17.974;2023-09-07T11:25:20;2.50;;;0.90;;
71475;SDS011;59286;59.274;17.974;2023-09-07T11:27:45;1.60;;;0.90;;
71475;SDS011;59286;59.274;17.974;2023-09-07T11:30:10;3.25;;;1.02;;
71475;SDS011;59286;59.274;17.974;2023-09-07T11:32:36;2.80;;;1.00;;
71475;SDS011;59286;59.274;17.974;2023-09-07T11:35:02;2.72;;;0.70;;
71475;SDS011;59286;59.274;17.974;2023-09-07T11:37:32;1.58;;;0.77;;
71475;SDS011;59286;59.274;17.974;2023-09-07T11:39:57;1.65;;;0.65;;
71475;SDS011;59286;59.274;17.974;2023-09-07T11:42:23;1.85;;;0.70;;
71475;SDS011;59286;59.274;17.974;2023-09-07T11:44:48;2.80;;;0.70;;
71475;SDS011;59286;59.274;17.974;2023-09-07T11:47:14;3.30;;;0.80;;
71475;SDS011;59286;59.274;17.974;2023-09-07T11:49:39;5.40;;;1.02;;
71475;SDS011;59286;59.274;17.974;2023-09-07T11:52:05;2.03;;;0.70;;
71475;SDS011;59286;59.274;17.974;2023-09-07T11:54:30;1.90;;;0.70;;
71475;SDS011;59286;59.274;17.974;2023-09-07T11:56:56;2.42;;;0.90;;
71475;SDS011;59286;59.274;17.974;2023-09-07T11:59:21;2.10;;;0.80;;
71475;SDS011;59286;59.274;17.974;2023-09-07T12:01:47;5.18;;;0.88;;
71475;SDS011;59286;59.274;17.974;2023-09-07T12:04:12;2.97;;;0.70;;
71475;SDS011;59286;59.274;17.974;2023-09-07T12:06:37;1.90;;;0.60;;
71475;SDS011;59286;59.274;17.974;2023-09-07T12:09:06;1.05;;;0.47;;
71475;SDS011;59286;59.274;17.974;2023-09-07T12:11:32;2.00;;;0.70;;
71475;SDS011;59286;59.274;17.974;2023-09-07T12:13:58;2.47;;;0.82;;
71475;SDS011;59286;59.274;17.974;2023-09-07T12:16:25;3.05;;;0.60;;
71475;SDS011;59286;59.274;17.974;2023-09-07T12:18:51;2.13;;;0.75;;
71475;SDS011;59286;59.274;17.974;2023-09-07T12:21:16;2.83;;;0.60;;
71475;SDS011;59286;59.274;17.974;2023-09-07T12:23:42;4.18;;;0.90;;
71475;SDS011;59286;59.274;17.974;2023-09-07T12:26:07;2.88;;;0.80;;
71475;SDS011;59286;59.274;17.974;2023-09-07T12:28:33;4.95;;;0.80;;
71475;SDS011;59286;59.274;17.974;2023-09-07T12:30:59;3.00;;;0.93;;
71475;SDS011;59286;59.274;17.974;2023-09-07T12:33:25;1.48;;;0.65;;
71475;SDS011;59286;59.274;17.974;2023-09-07T12:35:50;6.85;;;1.73;;
71475;SDS011;59286;59.274;17.974;2023-09-07T12:38:16;2.38;;;0.98;;
71475;SDS011;59286;59.274;17.974;2023-09-07T12:40:47;1.85;;;0.75;;
71475;SDS011;59286;59.274;17.974;2023-09-07T12:43:12;2.28;;;1.00;;
71475;SDS011;59286;59.274;17.974;2023-09-07T12:45:37;4.78;;;0.85;;
71475;SDS011;59286;59.274;17.974;2023-09-07T12:48:03;3.60;;;1.10;;
71475;SDS011;59286;59.274;17.974;2023-09-07T12:50:29;2.60;;;1.35;;
71475;SDS011;59286;59.274;17.974;2023-09-07T12:52:54;8.30;;;1.40;;
71475;SDS011;59286;59.274;17.974;2023-09-07T12:55:19;2.38;;;0.82;;
71475;SDS011;59286;59.274;17.974;2023-09-07T12:57:45;2.47;;;0.90;;
71475;SDS011;59286;59.274;17.974;2023-09-07T13:00:11;2.92;;;0.65;;
71475;SDS011;59286;59.274;17.974;2023-09-07T13:02:37;2.30;;;1.02;;
71475;SDS011;59286;59.274;17.974;2023-09-07T13:05:02;3.63;;;0.95;;
71475;SDS011;59286;59.274;17.974;2023-09-07T13:07:31;2.53;;;0.93;;
71475;SDS011;59286;59.274;17.974;2023-09-07T13:09:57;3.72;;;0.90;;
71475;SDS011;59286;59.274;17.974;2023-09-07T13:12:23;4.32;;;1.00;;
71475;SDS011;59286;59.274;17.974;2023-09-07T13:14:48;4.18;;;0.70;;
71475;SDS011;59286;59.274;17.974;2023-09-07T13:17:14;4.55;;;1.20;;
71475;SDS011;59286;59.274;17.974;2023-09-07T13:19:39;5.45;;;1.13;;
71475;SDS011;59286;59.274;17.974;2023-09-07T13:22:05;4.10;;;1.00;;
71475;SDS011;59286;59.274;17.974;2023-09-07T13:24:32;3.60;;;0.80;;
71475;SDS011;59286;59.274;17.974;2023-09-07T13:26:58;2.92;;;0.60;;
71475;SDS011;59286;59.274;17.974;2023-09-07T13:29:23;2.50;;;0.90;;
71475;SDS011;59286;59.274;17.974;2023-09-07T13:31:49;1.88;;;0.90;;
71475;SDS011;59286;59.274;17.974;2023-09-07T13:34:17;1.90;;;0.82;;
71475;SDS011;59286;59.274;17.974;2023-09-07T13:36:43;3.38;;;0.90;;
71475;SDS011;59286;59.274;17.974;2023-09-07T13:39:08;6.25;;;0.73;;
71475;SDS011;59286;59.274;17.974;2023-09-07T13:41:33;4.43;;;0.90;;
71475;SDS011;59286;59.274;17.974;2023-09-07T13:43:59;2.97;;;1.10;;
71475;SDS011;59286;59.274;17.974;2023-09-07T13:46:25;1.50;;;0.70;;
71475;SDS011;59286;59.274;17.974;2023-09-07T13:48:51;1.55;;;0.50;;
71475;SDS011;59286;59.274;17.974;2023-09-07T13:51:16;2.00;;;0.60;;
71475;SDS011;59286;59.274;17.974;2023-09-07T13:53:42;1.80;;;0.70;;
71475;SDS011;59286;59.274;17.974;2023-09-07T13:56:07;2.20;;;1.00;;
71475;SDS011;59286;59.274;17.974;2023-09-07T13:58:32;5.45;;;1.00;;
71475;SDS011;59286;59.274;17.974;2023-09-07T14:00:58;4.25;;;0.80;;
71475;SDS011;59286;59.274;17.974;2023-09-07T14:03:23;2.53;;;0.70;;
71475;SDS011;59286;59.274;17.974;2023-09-07T14:05:48;5.55;;;0.90;;
71475;SDS011;59286;59.274;17.974;2023-09-07T14:08:15;1.55;;;0.70;;
71475;SDS011;59286;59.274;17.974;2023-09-07T14:10:40;4.30;;;1.00;;
71475;SDS011;59286;59.274;17.974;2023-09-07T14:13:05;1.45;;;0.60;;
71475;SDS011;59286;59.274;17.974;2023-09-07T14:15:31;2.15;;;0.70;;
71475;SDS011;59286;59.274;17.974;2023-09-07T14:17:56;3.95;;;0.90;;
71475;SDS011;59286;59.274;17.974;2023-09-07T14:20:22;2.92;;;0.70;;
71475;SDS011;59286;59.274;17.974;2023-09-07T14:22:47;2.88;;;0.80;;
71475;SDS011;59286;59.274;17.974;2023-09-07T14:25:12;3.30;;;0.90;;
71475;SDS011;59286;59.274;17.974;2023-09-07T14:27:38;5.70;;;0.98;;
71475;SDS011;59286;59.274;17.974;2023-09-07T14:30:04;2.15;;;0.73;;
71475;SDS011;59286;59.274;17.974;2023-09-07T14:32:30;4.28;;;0.88;;